createdAt,value
2017-10-13T00:00:21.449Z,12.60
2017-10-13T00:02:48.963Z,12.60
2017-10-13T00:05:16.452Z,12.60
2017-10-13T00:07:44.725Z,12.60
2017-10-13T00:10:12.979Z,12.50
2017-10-13T00:12:40.490Z,12.50
2017-10-13T00:15:07.978Z,12.50
2017-10-13T00:17:35.506Z,12.50
2017-10-13T00:20:02.993Z,12.40
2017-10-13T00:22:30.498Z,12.40
2017-10-13T00:24:58.754Z,12.40
2017-10-13T00:27:26.266Z,12.40
2017-10-13T00:29:53.803Z,12.40
2017-10-13T00:32:21.309Z,12.40
2017-10-13T00:34:48.802Z,12.30
2017-10-13T00:37:17.082Z,12.30
2017-10-13T00:39:45.338Z,12.30
2017-10-13T00:42:12.846Z,12.30
2017-10-13T00:44:40.338Z,12.30
2017-10-13T00:47:07.851Z,12.30
2017-10-13T00:49:35.342Z,12.30
2017-10-13T00:52:02.854Z,12.30
2017-10-13T00:54:31.107Z,12.40
2017-10-13T00:56:58.594Z,12.40
2017-10-13T00:59:26.097Z,12.40
2017-10-13T01:01:53.581Z,12.40
2017-10-13T01:04:22.598Z,12.40
2017-10-13T01:06:50.859Z,12.50
2017-10-13T01:09:19.138Z,12.50
2017-10-13T01:11:47.397Z,12.40
2017-10-13T01:14:14.917Z,12.40
2017-10-13T01:16:42.402Z,12.40
2017-10-13T01:19:09.910Z,12.40
2017-10-13T01:21:37.401Z,12.40
2017-10-13T01:24:04.910Z,12.30
2017-10-13T01:26:33.167Z,12.30
2017-10-13T01:29:01.438Z,12.30
2017-10-13T01:31:28.925Z,12.30
2017-10-13T01:33:57.201Z,12.30
2017-10-13T01:36:25.458Z,12.40
2017-10-13T01:38:52.975Z,12.40
2017-10-13T01:41:20.474Z,12.40
2017-10-13T01:43:47.986Z,12.40
2017-10-13T01:46:15.478Z,12.40
2017-10-13T01:48:42.982Z,12.40
2017-10-13T01:51:10.474Z,12.40
2017-10-13T01:53:37.987Z,12.50
2017-10-13T01:56:06.257Z,12.40
2017-10-13T01:58:34.534Z,12.40
2017-10-13T02:01:02.794Z,12.40
2017-10-13T02:03:30.286Z,12.40
2017-10-13T02:05:57.797Z,12.40
2017-10-13T02:08:26.789Z,12.40
2017-10-13T02:10:54.298Z,12.40
2017-10-13T02:13:21.795Z,12.40
2017-10-13T02:15:49.327Z,12.40
2017-10-13T02:18:17.578Z,12.40
2017-10-13T02:20:45.078Z,12.40
2017-10-13T02:23:12.586Z,12.40
2017-10-13T02:25:40.838Z,12.40
2017-10-13T02:28:08.349Z,12.30
2017-10-13T02:30:35.843Z,12.30
2017-10-13T02:33:03.380Z,12.30
2017-10-13T02:35:30.874Z,12.30
2017-10-13T02:37:58.366Z,12.30
2017-10-13T02:40:25.883Z,12.20
2017-10-13T02:42:53.379Z,12.30
2017-10-13T02:45:21.662Z,12.20
2017-10-13T02:47:49.161Z,12.20
2017-10-13T02:50:16.679Z,12.20
2017-10-13T02:52:44.179Z,12.20
2017-10-13T02:55:11.669Z,12.20
2017-10-13T02:57:39.950Z,12.30
2017-10-13T03:00:08.206Z,12.20
2017-10-13T03:02:35.721Z,12.30
2017-10-13T03:05:03.219Z,12.20
2017-10-13T03:07:30.734Z,12.20
2017-10-13T03:09:58.230Z,12.20
2017-10-13T03:12:25.727Z,12.20
2017-10-13T03:14:54.007Z,12.20
2017-10-13T03:17:22.262Z,12.20
2017-10-13T03:19:49.782Z,12.20
2017-10-13T03:22:17.274Z,12.20
2017-10-13T03:24:44.790Z,12.20
2017-10-13T03:27:12.281Z,12.20
2017-10-13T03:29:39.793Z,12.20
2017-10-13T03:32:07.293Z,12.20
2017-10-13T03:34:34.787Z,12.20
2017-10-13T03:37:02.308Z,12.10
2017-10-13T03:39:29.810Z,12.10
2017-10-13T03:41:57.325Z,12.10
2017-10-13T03:44:24.813Z,12.10
2017-10-13T03:46:53.094Z,12.10
2017-10-13T03:49:21.354Z,12.10
2017-10-13T03:51:48.884Z,12.10
2017-10-13T03:54:16.390Z,12.10
2017-10-13T03:56:44.646Z,12.10
2017-10-13T03:59:12.166Z,12.00
2017-10-13T04:01:39.677Z,12.10
2017-10-13T04:04:07.958Z,12.10
2017-10-13T04:06:36.218Z,12.10
2017-10-13T04:09:03.734Z,12.10
2017-10-13T04:11:31.225Z,12.10
2017-10-13T04:13:58.714Z,12.10
2017-10-13T04:16:26.994Z,12.10
2017-10-13T04:18:54.486Z,12.00
2017-10-13T04:21:21.998Z,12.10
2017-10-13T04:23:50.262Z,12.10
2017-10-13T04:26:17.778Z,12.10
2017-10-13T04:28:45.269Z,12.10
2017-10-13T04:31:12.771Z,12.10
2017-10-13T04:33:40.290Z,12.10
2017-10-13T04:36:07.781Z,12.20
2017-10-13T04:38:35.298Z,12.30
2017-10-13T04:41:02.794Z,12.40
2017-10-13T04:43:30.310Z,12.50
2017-10-13T04:45:57.890Z,12.50
2017-10-13T04:48:26.174Z,12.60
2017-10-13T04:50:54.430Z,12.70
2017-10-13T04:53:21.922Z,12.70
2017-10-13T04:55:49.441Z,12.70
2017-10-13T04:58:16.933Z,12.80
2017-10-13T05:00:45.210Z,12.80
2017-10-13T05:03:13.470Z,12.80
2017-10-13T05:05:40.982Z,12.80
2017-10-13T05:08:08.473Z,12.80
2017-10-13T05:10:36.766Z,12.80
2017-10-13T05:13:05.046Z,12.90
2017-10-13T05:15:33.301Z,12.90
2017-10-13T05:18:00.814Z,12.90
2017-10-13T05:20:28.310Z,12.90
2017-10-13T05:22:55.822Z,13.00
2017-10-13T05:25:23.314Z,12.90
2017-10-13T05:27:50.830Z,13.00
2017-10-13T05:30:18.327Z,13.00
2017-10-13T05:32:45.820Z,13.00
2017-10-13T05:35:14.101Z,13.00
2017-10-13T05:37:42.354Z,12.90
2017-10-13T05:40:09.870Z,12.90
2017-10-13T05:42:37.376Z,12.90
2017-10-13T05:45:04.890Z,13.00
2017-10-13T05:47:32.377Z,13.00
2017-10-13T05:49:59.870Z,13.00
2017-10-13T05:52:28.146Z,13.10
2017-10-13T05:54:56.407Z,13.10
2017-10-13T05:57:23.926Z,13.10
2017-10-13T05:59:51.426Z,13.10
2017-10-13T06:02:18.941Z,13.10
2017-10-13T06:04:46.434Z,13.20
2017-10-13T06:07:13.926Z,13.20
2017-10-13T06:09:42.207Z,13.10
2017-10-13T06:12:09.701Z,13.10
2017-10-13T06:14:37.240Z,13.10
2017-10-13T06:17:04.730Z,13.10
2017-10-13T06:19:32.246Z,13.10
2017-10-13T06:21:59.735Z,13.10
2017-10-13T06:24:27.233Z,13.10
2017-10-13T06:26:54.742Z,13.10
2017-10-13T06:29:22.234Z,13.10
2017-10-13T06:31:49.761Z,13.10
2017-10-13T06:34:17.258Z,13.10
2017-10-13T06:36:46.278Z,13.10
2017-10-13T06:39:14.542Z,13.10
2017-10-13T06:41:42.823Z,13.10
2017-10-13T06:44:11.093Z,13.10
2017-10-13T06:46:38.602Z,13.10
2017-10-13T06:49:06.114Z,13.10
2017-10-13T06:51:34.370Z,13.30
2017-10-13T06:54:01.891Z,13.30
2017-10-13T06:56:29.381Z,13.30
2017-10-13T06:58:56.894Z,13.40
2017-10-13T07:01:24.382Z,13.50
2017-10-13T07:03:51.874Z,13.50
2017-10-13T07:06:20.150Z,13.50
2017-10-13T07:08:48.414Z,13.60
2017-10-13T07:11:16.698Z,13.60
2017-10-13T07:13:44.199Z,13.60
2017-10-13T07:16:11.710Z,13.70
2017-10-13T07:18:39.197Z,13.70
2017-10-13T07:21:06.685Z,13.80
2017-10-13T07:23:34.194Z,13.80
2017-10-13T07:26:02.454Z,13.90
2017-10-13T07:28:29.966Z,13.90
2017-10-13T07:30:57.462Z,14.00
2017-10-13T07:33:24.974Z,14.00
2017-10-13T07:35:52.463Z,14.00
2017-10-13T07:38:19.981Z,14.10
2017-10-13T07:40:47.479Z,14.20
2017-10-13T07:43:14.969Z,14.30
2017-10-13T07:45:42.481Z,14.40
2017-10-13T07:48:09.970Z,14.40
2017-10-13T07:50:37.478Z,14.40
2017-10-13T07:53:04.978Z,14.40
2017-10-13T07:55:32.490Z,14.40
2017-10-13T07:57:59.984Z,14.40
2017-10-13T08:00:27.474Z,14.60
2017-10-13T08:02:54.982Z,14.70
2017-10-13T08:05:22.474Z,14.70
2017-10-13T08:07:49.998Z,14.80
2017-10-13T08:10:17.490Z,14.90
2017-10-13T08:12:44.998Z,15.00
2017-10-13T08:15:12.494Z,15.10
2017-10-13T08:17:39.983Z,15.10
2017-10-13T08:20:08.254Z,15.40
2017-10-13T08:22:35.737Z,15.40
2017-10-13T08:25:04.014Z,15.60
2017-10-13T08:27:32.278Z,15.80
2017-10-13T08:30:00.550Z,15.90
2017-10-13T08:32:28.042Z,15.90
2017-10-13T08:34:55.554Z,16.10
2017-10-13T08:37:23.045Z,16.40
2017-10-13T08:39:51.294Z,17.00
2017-10-13T08:42:18.805Z,17.00
2017-10-13T08:44:46.285Z,17.40
2017-10-13T08:47:13.793Z,18.10
2017-10-13T08:49:42.050Z,19.80
2017-10-13T08:52:09.562Z,19.70
2017-10-13T08:54:37.135Z,20.40
2017-10-13T08:57:04.631Z,21.00
2017-10-13T08:59:32.160Z,21.50
2017-10-13T09:01:59.658Z,21.80
2017-10-13T09:04:27.174Z,22.60
2017-10-13T09:06:55.434Z,23.90
2017-10-13T09:09:22.950Z,23.90
2017-10-13T09:11:50.439Z,23.90
2017-10-13T09:14:17.925Z,23.60
2017-10-13T09:16:45.434Z,23.90
2017-10-13T09:19:12.924Z,23.40
2017-10-13T09:21:40.485Z,23.60
2017-10-13T09:24:07.974Z,23.90
2017-10-13T09:26:36.250Z,23.60
2017-10-13T09:29:04.506Z,23.70
2017-10-13T09:31:32.027Z,23.60
2017-10-13T09:33:59.514Z,23.70
2017-10-13T09:36:27.002Z,23.00
2017-10-13T09:38:55.277Z,23.10
2017-10-13T09:41:23.529Z,22.90
2017-10-13T09:43:51.050Z,22.80
2017-10-13T09:46:18.539Z,22.50
2017-10-13T09:48:46.046Z,22.20
2017-10-13T09:51:13.536Z,22.20
2017-10-13T09:53:41.038Z,22.30
2017-10-13T09:56:09.293Z,21.90
2017-10-13T09:58:36.796Z,21.80
2017-10-13T10:01:04.311Z,21.80
2017-10-13T10:03:31.793Z,21.70
2017-10-13T10:06:00.066Z,21.20
2017-10-13T10:08:28.322Z,21.00
2017-10-13T10:10:55.854Z,21.00
2017-10-13T10:13:23.341Z,20.80
2017-10-13T10:15:50.853Z,21.00
2017-10-13T10:18:18.346Z,21.20
2017-10-13T10:20:45.833Z,21.20
2017-10-13T10:23:14.106Z,21.00
2017-10-13T10:25:42.366Z,20.60
2017-10-13T10:28:09.878Z,20.60
2017-10-13T10:30:37.365Z,20.50
2017-10-13T10:33:04.874Z,20.60
2017-10-13T10:35:32.365Z,20.40
2017-10-13T10:37:59.874Z,20.20
2017-10-13T10:40:28.122Z,19.80
2017-10-13T10:42:55.610Z,19.70
2017-10-13T10:45:23.886Z,19.70
2017-10-13T10:47:52.146Z,19.70
2017-10-13T10:50:19.653Z,19.70
2017-10-13T10:52:47.142Z,19.70
2017-10-13T10:55:14.654Z,19.70
2017-10-13T10:57:42.138Z,19.60
2017-10-13T11:00:09.630Z,19.90
2017-10-13T11:02:37.158Z,19.80
2017-10-13T11:05:04.651Z,19.60
2017-10-13T11:07:32.166Z,19.40
2017-10-13T11:09:59.658Z,19.50
2017-10-13T11:12:28.674Z,20.10
2017-10-13T11:14:56.165Z,20.10
2017-10-13T11:17:23.678Z,20.60
2017-10-13T11:19:51.170Z,20.90
2017-10-13T11:22:18.658Z,21.10
2017-10-13T11:24:46.174Z,21.20
2017-10-13T11:27:14.426Z,21.30
2017-10-13T11:29:41.938Z,21.30
2017-10-13T11:32:09.433Z,21.20
2017-10-13T11:34:36.942Z,21.10
2017-10-13T11:37:05.202Z,20.70
2017-10-13T11:39:32.718Z,20.60
2017-10-13T11:42:00.205Z,20.50
2017-10-13T11:44:27.693Z,20.20
2017-10-13T11:46:55.970Z,20.20
2017-10-13T11:49:24.226Z,20.30
2017-10-13T11:51:52.502Z,20.30
2017-10-13T11:54:19.990Z,20.30
2017-10-13T11:56:48.271Z,20.30
2017-10-13T11:59:16.530Z,20.60
2017-10-13T12:01:44.018Z,20.60
2017-10-13T12:04:11.526Z,21.30
2017-10-13T12:06:39.013Z,22.10
2017-10-13T12:09:07.289Z,22.40
2017-10-13T12:11:35.547Z,22.00
2017-10-13T12:14:03.059Z,21.90
2017-10-13T12:16:30.545Z,22.00
2017-10-13T12:18:58.055Z,22.00
2017-10-13T12:21:25.537Z,22.00
2017-10-13T12:23:53.021Z,21.90
2017-10-13T12:26:20.530Z,21.70
2017-10-13T12:28:48.018Z,21.80
2017-10-13T12:31:15.525Z,21.80
2017-10-13T12:33:43.778Z,21.70
2017-10-13T12:36:11.290Z,21.70
2017-10-13T12:38:38.778Z,21.30
2017-10-13T12:41:06.283Z,21.40
2017-10-13T12:43:34.530Z,21.00
2017-10-13T12:46:02.028Z,21.00
2017-10-13T12:48:29.546Z,21.10
2017-10-13T12:50:57.029Z,21.90
2017-10-13T12:53:25.298Z,22.90
2017-10-13T12:55:52.791Z,22.90
2017-10-13T12:58:20.302Z,22.60
2017-10-13T13:00:47.791Z,22.10
2017-10-13T13:03:16.052Z,21.20
2017-10-13T13:05:44.338Z,20.90
2017-10-13T13:08:12.592Z,20.80
2017-10-13T13:10:40.103Z,20.80
2017-10-13T13:13:07.598Z,21.00
2017-10-13T13:15:35.105Z,21.40
2017-10-13T13:18:02.595Z,21.50
2017-10-13T13:20:30.082Z,21.40
2017-10-13T13:22:58.358Z,21.20
2017-10-13T13:25:25.846Z,21.20
2017-10-13T13:27:53.357Z,21.20
2017-10-13T13:30:20.842Z,21.10
2017-10-13T13:32:48.358Z,21.20
2017-10-13T13:35:16.606Z,21.10
2017-10-13T13:37:44.097Z,21.10
2017-10-13T13:40:11.607Z,21.00
2017-10-13T13:42:39.866Z,20.70
2017-10-13T13:45:07.370Z,20.60
2017-10-13T13:47:34.858Z,20.60
2017-10-13T13:50:02.375Z,20.60
2017-10-13T13:52:29.862Z,20.70
2017-10-13T13:54:57.350Z,21.20
2017-10-13T13:57:24.871Z,21.10
2017-10-13T13:59:52.365Z,21.00
2017-10-13T14:02:19.878Z,20.90
2017-10-13T14:04:47.369Z,20.80
2017-10-13T14:07:14.882Z,20.60
2017-10-13T14:09:42.378Z,20.60
2017-10-13T14:12:09.866Z,20.40
2017-10-13T14:14:38.144Z,20.00
2017-10-13T14:17:06.450Z,20.00
2017-10-13T14:19:33.961Z,19.90
2017-10-13T14:22:02.958Z,20.00
2017-10-13T14:24:30.467Z,20.00
2017-10-13T14:26:57.965Z,20.00
2017-10-13T14:29:26.229Z,19.90
2017-10-13T14:31:53.744Z,19.90
2017-10-13T14:34:21.236Z,19.90
2017-10-13T14:36:48.749Z,19.90
2017-10-13T14:39:17.003Z,19.80
2017-10-13T14:41:44.518Z,19.80
2017-10-13T14:44:12.015Z,19.80
2017-10-13T14:46:39.510Z,19.80
2017-10-13T14:49:07.025Z,19.80
2017-10-13T14:51:34.512Z,19.80
2017-10-13T14:54:02.781Z,19.80
2017-10-13T14:56:31.038Z,19.80
2017-10-13T14:58:58.551Z,19.80
2017-10-13T15:01:26.045Z,19.90
2017-10-13T15:03:53.525Z,19.90
2017-10-13T15:06:21.030Z,19.90
2017-10-13T15:08:48.518Z,20.00
2017-10-13T15:11:16.021Z,19.90
2017-10-13T15:13:44.278Z,19.90
2017-10-13T15:16:11.787Z,19.80
2017-10-13T15:18:39.283Z,19.80
2017-10-13T15:21:07.568Z,19.80
2017-10-13T15:23:35.050Z,19.80
2017-10-13T15:26:03.303Z,19.60
2017-10-13T15:28:36.523Z,19.60
2017-10-13T15:31:04.019Z,19.60
2017-10-13T15:33:37.370Z,19.50
2017-10-13T15:36:11.337Z,19.40
2017-10-13T15:38:44.525Z,19.40
2017-10-13T15:41:17.722Z,19.30
2017-10-13T15:43:51.079Z,19.20
2017-10-13T15:46:24.294Z,19.10
2017-10-13T15:48:57.534Z,19.10
2017-10-13T15:51:31.548Z,19.10
2017-10-13T15:53:59.818Z,19.10
2017-10-13T15:56:28.075Z,19.00
2017-10-13T15:58:55.590Z,19.00
2017-10-13T16:01:23.078Z,19.00
2017-10-13T16:03:50.599Z,19.00
2017-10-13T16:06:18.094Z,19.00
2017-10-13T16:08:45.581Z,19.00
2017-10-13T16:11:13.090Z,19.00
2017-10-13T16:13:40.578Z,19.00
2017-10-13T16:16:08.117Z,19.00
2017-10-13T16:18:35.605Z,18.90
2017-10-13T16:21:03.882Z,18.90
2017-10-13T16:23:31.370Z,18.90
2017-10-13T16:25:59.623Z,18.80
2017-10-13T16:28:27.982Z,18.80
2017-10-13T16:30:55.474Z,18.70
2017-10-13T16:33:23.746Z,18.60
2017-10-13T16:35:51.998Z,18.50
2017-10-13T16:38:20.278Z,18.50
2017-10-13T16:40:47.766Z,18.50
2017-10-13T16:43:16.042Z,18.40
2017-10-13T16:45:44.303Z,18.30
2017-10-13T16:48:12.555Z,18.30
2017-10-13T16:50:40.062Z,18.30
2017-10-13T16:53:07.557Z,18.30
2017-10-13T16:55:35.070Z,18.30
2017-10-13T16:58:02.565Z,18.20
2017-10-13T17:00:30.078Z,18.20
2017-10-13T17:02:58.330Z,18.20
2017-10-13T17:05:25.814Z,18.20
2017-10-13T17:07:54.090Z,18.10
2017-10-13T17:10:22.341Z,18.10
2017-10-13T17:12:49.862Z,18.10
2017-10-13T17:15:17.350Z,18.00
2017-10-13T17:17:44.862Z,17.90
2017-10-13T17:20:12.353Z,17.90
2017-10-13T17:22:39.846Z,17.90
2017-10-13T17:25:08.123Z,17.70
2017-10-13T17:27:36.374Z,17.70
2017-10-13T17:30:03.881Z,17.60
2017-10-13T17:32:31.371Z,17.60
2017-10-13T17:34:58.878Z,17.60
2017-10-13T17:37:27.134Z,17.60
2017-10-13T17:39:54.630Z,17.50
2017-10-13T17:42:22.146Z,17.60
2017-10-13T17:44:49.634Z,17.50
2017-10-13T17:47:17.909Z,17.50
2017-10-13T17:49:46.171Z,17.50
2017-10-13T17:52:13.681Z,17.40
2017-10-13T17:54:41.170Z,17.40
2017-10-13T17:57:08.657Z,17.40
2017-10-13T17:59:36.935Z,17.40
2017-10-13T18:02:05.190Z,17.40
2017-10-13T18:04:32.715Z,17.40
2017-10-13T18:07:00.213Z,17.40
2017-10-13T18:09:27.726Z,17.40
2017-10-13T18:11:55.214Z,17.40
2017-10-13T18:14:23.470Z,17.30
2017-10-13T18:16:50.980Z,17.30
2017-10-13T18:19:19.235Z,17.20
2017-10-13T18:21:46.745Z,17.20
2017-10-13T18:24:14.234Z,17.10
2017-10-13T18:26:41.747Z,17.10
2017-10-13T18:29:09.241Z,17.10
2017-10-13T18:31:36.729Z,17.10
2017-10-13T18:34:04.239Z,17.10
2017-10-13T18:36:31.734Z,17.10
2017-10-13T18:39:00.010Z,17.00
2017-10-13T18:41:27.497Z,17.00
2017-10-13T18:43:55.786Z,17.10
2017-10-13T18:46:23.274Z,17.00
2017-10-13T18:48:50.762Z,17.00
2017-10-13T18:51:19.774Z,17.00
2017-10-13T18:53:48.025Z,17.10
2017-10-13T18:56:15.539Z,17.00
2017-10-13T18:58:43.038Z,17.00
2017-10-13T19:01:10.548Z,17.00
2017-10-13T19:03:38.053Z,17.00
2017-10-13T19:06:05.566Z,17.10
2017-10-13T19:08:33.049Z,17.00
2017-10-13T19:11:00.540Z,17.00
2017-10-13T19:13:28.815Z,17.00
2017-10-13T19:15:56.376Z,16.90
2017-10-13T19:18:23.898Z,16.90
2017-10-13T19:20:51.386Z,16.90
2017-10-13T19:23:18.894Z,16.90
2017-10-13T19:25:46.382Z,16.80
2017-10-13T19:28:13.897Z,16.80
2017-10-13T19:30:42.163Z,16.80
2017-10-13T19:33:10.428Z,16.80
2017-10-13T19:35:38.710Z,16.80
2017-10-13T19:38:06.962Z,16.80
2017-10-13T19:40:34.475Z,16.80
2017-10-13T19:43:01.967Z,16.80
2017-10-13T19:45:29.486Z,16.80
2017-10-13T19:47:56.978Z,16.80
2017-10-13T19:50:24.461Z,16.80
2017-10-13T19:52:51.975Z,16.90
2017-10-13T19:55:19.463Z,16.90
2017-10-13T19:57:46.975Z,16.90
2017-10-13T20:00:14.463Z,16.90
2017-10-13T20:02:41.962Z,16.90
2017-10-13T20:05:09.471Z,16.90
2017-10-13T20:07:36.966Z,16.90
2017-10-13T20:10:04.469Z,16.90
2017-10-13T20:12:31.954Z,16.90
2017-10-13T20:14:59.442Z,16.90
2017-10-13T20:17:27.717Z,16.90
2017-10-13T20:19:56.714Z,16.90
2017-10-13T20:22:25.001Z,16.90
2017-10-13T20:24:52.497Z,16.90
2017-10-13T20:27:19.985Z,16.90
2017-10-13T20:29:47.498Z,16.90
2017-10-13T20:32:14.985Z,16.90
2017-10-13T20:34:42.489Z,17.00
2017-10-13T20:37:10.750Z,16.90
2017-10-13T20:39:38.263Z,16.90
2017-10-13T20:42:05.758Z,16.90
2017-10-13T20:44:33.245Z,17.00
2017-10-13T20:47:01.522Z,16.90
2017-10-13T20:49:29.022Z,16.90
2017-10-13T20:51:56.534Z,16.90
2017-10-13T20:54:24.026Z,16.90
2017-10-13T20:56:51.537Z,16.90
2017-10-13T20:59:19.021Z,16.90
2017-10-13T21:01:47.297Z,16.90
2017-10-13T21:04:15.550Z,16.90
2017-10-13T21:06:44.547Z,16.80
2017-10-13T21:09:12.058Z,16.90
2017-10-13T21:11:39.545Z,16.90
2017-10-13T21:14:07.054Z,16.90
2017-10-13T21:16:34.546Z,16.90
2017-10-13T21:19:02.058Z,16.90
2017-10-13T21:21:30.314Z,16.90
2017-10-13T21:23:57.805Z,16.90
2017-10-13T21:26:25.317Z,16.90
2017-10-13T21:28:52.801Z,16.80
2017-10-13T21:31:21.078Z,16.80
2017-10-13T21:33:49.330Z,16.80
2017-10-13T21:36:18.341Z,16.80
2017-10-13T21:38:46.598Z,16.80
2017-10-13T21:41:14.107Z,16.80
2017-10-13T21:43:41.610Z,16.70
2017-10-13T21:46:09.130Z,16.70
2017-10-13T21:48:36.618Z,16.80
2017-10-13T21:51:04.136Z,16.80
2017-10-13T21:53:31.625Z,16.70
2017-10-13T21:55:59.134Z,16.70
2017-10-13T21:58:27.386Z,16.60
2017-10-13T22:00:56.401Z,16.60
2017-10-13T22:03:24.655Z,16.60
2017-10-13T22:05:52.142Z,16.50
2017-10-13T22:08:20.413Z,16.50
2017-10-13T22:10:48.665Z,16.50
2017-10-13T22:13:16.175Z,16.50
2017-10-13T22:15:43.667Z,16.50
2017-10-13T22:18:11.153Z,16.50
2017-10-13T22:20:38.666Z,16.50
2017-10-13T22:23:06.154Z,16.50
2017-10-13T22:25:35.175Z,16.50
2017-10-13T22:28:03.422Z,16.50
2017-10-13T22:30:30.933Z,16.50
2017-10-13T22:32:58.427Z,16.50
2017-10-13T22:35:25.913Z,16.40
2017-10-13T22:37:54.194Z,16.40
2017-10-13T22:40:22.445Z,16.40
2017-10-13T22:42:50.729Z,16.30
2017-10-13T22:45:19.755Z,16.30
2017-10-13T22:47:47.262Z,16.20
2017-10-13T22:50:14.775Z,16.30
2017-10-13T22:52:42.291Z,16.30
2017-10-13T22:55:09.809Z,16.20
2017-10-13T22:57:37.306Z,16.20
2017-10-13T23:00:04.817Z,16.20
2017-10-13T23:02:32.305Z,16.20
2017-10-13T23:04:59.818Z,16.10
2017-10-13T23:07:28.082Z,16.00
2017-10-13T23:09:56.337Z,16.00
2017-10-13T23:12:23.851Z,16.00
2017-10-13T23:14:51.343Z,15.90
2017-10-13T23:17:18.866Z,15.90
2017-10-13T23:19:46.361Z,15.90
2017-10-13T23:22:13.877Z,15.90
2017-10-13T23:24:41.366Z,15.90
2017-10-13T23:27:08.858Z,15.90
2017-10-13T23:29:36.369Z,15.90
2017-10-13T23:32:03.872Z,15.90
2017-10-13T23:34:32.146Z,15.80
2017-10-13T23:37:00.402Z,15.80
2017-10-13T23:39:27.894Z,15.80
2017-10-13T23:41:56.166Z,15.70
2017-10-13T23:44:24.425Z,15.70
2017-10-13T23:46:51.938Z,15.70
2017-10-13T23:49:19.442Z,15.60
2017-10-13T23:51:48.443Z,15.50
2017-10-13T23:54:17.462Z,15.50
2017-10-13T23:56:45.732Z,15.40
2017-10-13T23:59:14.013Z,15.40
